Time;durP1;ratioP1;P1;durP2;ratioP2;P2;SDS_P1;SDS_P2;PMS_P1;PMS_P2;Temp;Humidity;BMP_temperature;BMP_pressure;BME280_temperature;BME280_humidity;BME280_pressure;Samples;Min_cycle;Max_cycle;Signal;HPM_P1;HPM_P2
2023/04/22 00:00:05;;;;;;;;;29.50;26.00;;;;;11.57;48.87;100325.03;5099249;27;45370;-47
2023/04/22 00:02:31;;;;;;;;;26.75;20.25;;;;;11.58;49.20;100332.03;5099329;27;45420;-48
2023/04/22 00:04:56;;;;;;;;;33.25;26.25;;;;;11.46;48.83;100307.50;5099420;27;45302;-49
2023/04/22 00:07:22;;;;;;;;;28.67;23.67;;;;;11.38;48.86;100295.03;5099043;27;46050;-49
2023/04/22 00:09:48;;;;;;;;;26.25;25.50;;;;;11.55;48.37;100330.53;5099268;27;45306;-45
2023/04/22 00:12:13;;;;;;;;;28.75;25.50;;;;;11.52;48.72;100330.84;5099187;27;45474;-45
2023/04/22 00:14:39;;;;;;;;;35.00;28.50;;;;;11.52;48.49;100330.84;5099143;27;45381;-47
2023/04/22 00:17:05;;;;;;;;;33.75;25.75;;;;;11.47;47.78;100335.84;5099134;27;46878;-48
2023/04/22 00:19:31;;;;;;;;;32.00;27.75;;;;;11.50;48.43;100338.16;5098763;27;45414;-46
2023/04/22 00:21:56;;;;;;;;;35.25;26.25;;;;;11.48;48.70;100334.84;5099106;27;45349;-48
2023/04/22 00:24:21;;;;;;;;;31.00;25.00;;;;;11.46;48.51;100337.66;5099256;27;45318;-45
2023/04/22 00:26:47;;;;;;;;;31.50;21.50;;;;;11.35;48.57;100315.81;5098811;27;45333;-44
2023/04/22 00:29:12;;;;;;;;;25.50;22.00;;;;;11.46;48.65;100331.47;5098924;27;45565;-46
2023/04/22 00:31:37;;;;;;;;;29.25;24.25;;;;;11.44;48.44;100334.31;5098927;27;45352;-46
2023/04/22 00:34:03;;;;;;;;;33.75;28.50;;;;;11.44;48.93;100339.66;5099193;27;45369;-45
2023/04/22 00:36:28;;;;;;;;;33.75;22.75;;;;;11.33;49.30;100310.63;5098292;27;46687;-46
2023/04/22 00:38:53;;;;;;;;;25.75;24.00;;;;;11.44;49.60;100326.31;5098684;27;45318;-47
2023/04/22 00:41:19;;;;;;;;;31.00;23.25;;;;;11.41;49.47;100310.66;5098771;27;46051;-45
2023/04/22 00:43:45;;;;;;;;;26.75;24.25;;;;;11.40;49.28;100318.84;5098607;27;45388;-47
2023/04/22 00:46:10;;;;;;;;;25.67;22.00;;;;;11.37;49.07;100321.81;5098699;27;46849;-47
2023/04/22 00:48:36;;;;;;;;;25.25;22.50;;;;;11.36;49.41;100323.66;5098376;27;45412;-47
2023/04/22 00:51:01;;;;;;;;;26.75;23.50;;;;;11.35;48.94;100331.81;5097820;27;45352;-47
2023/04/22 00:53:27;;;;;;;;;23.00;20.00;;;;;11.23;49.11;100318.78;5098937;27;45275;-47
2023/04/22 00:55:53;;;;;;;;;32.00;26.00;;;;;11.30;49.48;100323.47;5098295;27;45455;-46
2023/04/22 00:58:19;;;;;;;;;23.50;23.00;;;;;11.32;49.23;100321.47;5098159;27;46076;-44
2023/04/22 01:00:45;;;;;;;;;30.25;23.25;;;;;11.34;49.59;100314.16;5098598;27;45322;-46
2023/04/22 01:03:11;;;;;;;;;24.33;22.67;;;;;11.34;48.86;100300.84;5098648;27;45374;-48
2023/04/22 01:05:38;;;;;;;;;25.00;22.50;;;;;11.26;49.01;100280.34;5097464;27;46247;-48
2023/04/22 01:08:03;;;;;;;;;27.00;23.33;;;;;11.38;49.57;100291.53;5079653;27;45498;-46
2023/04/22 01:10:28;;;;;;;;;28.00;22.67;;;;;11.36;49.03;100291.69;5098235;27;45338;-47
2023/04/22 01:12:54;;;;;;;;;24.33;23.33;;;;;11.32;48.89;100277.03;5098399;27;45491;-47
2023/04/22 01:15:19;;;;;;;;;25.33;19.67;;;;;11.26;48.91;100269.72;5097230;27;46135;-46
2023/04/22 01:17:45;;;;;;;;;30.75;23.25;;;;;11.24;49.02;100272.50;5098081;27;45318;-45
2023/04/22 01:20:11;;;;;;;;;26.25;23.00;;;;;11.27;49.23;100278.53;5097940;27;45420;-47
2023/04/22 01:22:40;;;;;;;;;25.75;24.00;;;;;11.26;48.94;100271.53;5098497;27;45276;-47
2023/04/22 01:25:07;;;;;;;;;21.00;18.33;;;;;11.23;49.24;100260.19;5097949;27;45495;-47
2023/04/22 01:27:32;;;;;;;;;25.67;21.67;;;;;11.24;49.18;100264.53;5097716;27;45401;-46
2023/04/22 01:29:58;;;;;;;;;20.00;18.67;;;;;11.22;48.92;100266.53;5098329;27;45331;-45
2023/04/22 01:32:24;;;;;;;;;30.67;20.67;;;;;11.21;49.19;100262.22;5098032;27;45350;-45
2023/04/22 01:34:49;;;;;;;;;26.00;20.33;;;;;11.21;49.09;100262.22;5097684;27;46232;-46
2023/04/22 01:37:14;;;;;;;;;27.75;21.00;;;;;11.22;49.48;100261.19;5097766;27;45460;-46
2023/04/22 01:39:40;;;;;;;;;30.75;21.00;;;;;11.21;49.21;100270.19;5097800;27;45344;-46
2023/04/22 01:42:05;;;;;;;;;22.75;19.25;;;;;11.21;49.11;100258.72;5079586;27;45660;-46
2023/04/22 01:44:31;;;;;;;;;25.75;20.50;;;;;11.17;48.79;100255.53;5097199;27;46001;-47
2023/04/22 01:46:56;;;;;;;;;21.33;17.00;;;;;11.20;48.95;100257.84;5097793;27;45313;-46
2023/04/22 01:49:21;;;;;;;;;21.00;19.00;;;;;11.20;49.17;100262.34;5097868;27;45409;-47
2023/04/22 01:51:47;;;;;;;;;31.00;20.75;;;;;11.21;49.27;100258.72;5097970;27;45181;-46
2023/04/22 01:54:12;;;;;;;;;25.25;20.75;;;;;11.15;49.06;100232.72;5097444;27;46202;-48
2023/04/22 01:56:39;;;;;;;;;23.00;17.25;;;;;11.17;49.19;100239.56;5097323;27;45390;-45
2023/04/22 01:59:05;;;;;;;;;27.25;18.25;;;;;11.16;49.87;100239.72;5097629;27;45364;-48
2023/04/22 02:01:30;;;;;;;;;27.75;21.50;;;;;11.12;49.79;100228.53;5097680;27;45348;-45
2023/04/22 02:03:56;;;;;;;;;20.00;16.25;;;;;11.11;49.35;100228.72;5097294;27;47196;-47
2023/04/22 02:06:21;;;;;;;;;24.25;21.00;;;;;11.08;49.87;100210.41;5097363;27;45332;-45
2023/04/22 02:08:46;;;;;;;;;21.67;19.67;;;;;11.10;50.18;100205.78;5097521;27;45433;-45
2023/04/22 02:11:12;;;;;;;;;24.50;20.75;;;;;11.08;50.37;100197.09;5097639;27;45372;-48
2023/04/22 02:13:39;;;;;;;;;24.75;23.00;;;;;11.06;50.20;100207.91;5097104;27;45483;-47
2023/04/22 02:16:05;;;;;;;;;21.00;20.50;;;;;11.06;50.41;100204.44;5097803;27;45259;-46
2023/04/22 02:18:30;;;;;;;;;20.50;19.25;;;;;11.03;50.61;100218.88;5101111;27;45404;-45
2023/04/22 02:20:56;;;;;;;;;21.00;18.25;;;;;11.02;50.50;100208.41;5101102;27;45405;-45
2023/04/22 02:23:22;;;;;;;;;24.75;21.00;;;;;11.03;51.30;100212.72;5100738;27;46578;-48
2023/04/22 02:25:51;;;;;;;;;29.75;20.00;;;;;11.01;51.31;100218.22;5100917;27;45302;-46
2023/04/22 02:28:17;;;;;;;;;30.00;26.50;;;;;11.02;52.41;100221.72;5100759;27;45365;-47
2023/04/22 02:30:45;;;;;;;;;25.00;22.50;;;;;10.94;51.76;100210.03;5101120;27;45468;-48
2023/04/22 02:33:10;;;;;;;;;27.50;23.25;;;;;11.01;52.18;100220.88;5100681;27;45354;-49
2023/04/22 02:35:36;;;;;;;;;34.00;24.25;;;;;10.98;52.08;100213.22;5100578;27;45835;-45
2023/04/22 02:38:01;;;;;;;;;22.00;19.25;;;;;11.01;52.67;100223.56;5100838;27;45349;-46
2023/04/22 02:40:27;;;;;;;;;27.75;21.00;;;;;11.01;52.82;100214.72;5100700;27;45384;-44
2023/04/22 02:42:52;;;;;;;;;28.00;24.75;;;;;10.96;52.43;100201.91;5100157;27;45393;-45
2023/04/22 02:45:17;;;;;;;;;27.50;24.50;;;;;10.99;52.54;100207.72;5100554;27;45343;-47
2023/04/22 02:47:43;;;;;;;;;30.25;28.00;;;;;10.98;52.83;100211.38;5100719;27;45397;-47
2023/04/22 02:50:08;;;;;;;;;30.00;20.50;;;;;11.00;52.91;100216.56;5100871;27;45273;-47
2023/04/22 02:52:34;;;;;;;;;21.25;21.25;;;;;10.98;53.30;100221.22;5099700;27;45487;-45
2023/04/22 02:54:59;;;;;;;;;29.00;21.25;;;;;10.94;53.28;100215.38;5100519;27;45277;-45
2023/04/22 02:57:25;;;;;;;;;27.50;24.00;;;;;10.92;53.11;100214.72;5100347;27;45442;-46
2023/04/22 02:59:50;;;;;;;;;27.75;21.00;;;;;10.88;54.08;100217.84;5100346;27;45517;-47
2023/04/22 03:02:15;;;;;;;;;34.00;24.75;;;;;10.86;53.53;100206.53;5100261;27;46074;-44
2023/04/22 03:04:41;;;;;;;;;27.00;20.50;;;;;10.91;53.30;100206.88;5099215;27;45437;-47
2023/04/22 03:07:06;;;;;;;;;28.75;24.00;;;;;10.92;53.00;100197.91;5082030;27;45305;-46
2023/04/22 03:09:31;;;;;;;;;25.00;24.00;;;;;10.83;52.78;100172.25;5100497;27;45513;-46
2023/04/22 03:11:57;;;;;;;;;26.25;21.00;;;;;10.92;53.01;100181.94;5099928;27;46091;-47
2023/04/22 03:14:22;;;;;;;;;25.75;22.50;;;;;10.94;53.60;100186.09;5099882;27;45409;-46
2023/04/22 03:16:47;;;;;;;;;31.50;22.50;;;;;10.94;53.60;100175.44;5099998;27;45420;-46
2023/04/22 03:19:13;;;;;;;;;23.50;21.50;;;;;10.98;53.71;100173.31;5100475;27;45336;-45
2023/04/22 03:21:38;;;;;;;;;26.75;24.75;;;;;10.95;53.63;100152.31;5099774;27;46302;-46
2023/04/22 03:24:03;;;;;;;;;40.25;27.00;;;;;10.97;54.10;100161.00;5099934;27;45243;-46
2023/04/22 03:26:29;;;;;;;;;32.00;24.50;;;;;10.86;54.23;100137.34;5081722;27;45439;-48
2023/04/22 03:28:54;;;;;;;;;23.00;18.50;;;;;10.95;54.95;100145.16;5098890;27;45417;-45
2023/04/22 03:31:19;;;;;;;;;33.00;28.50;;;;;10.95;53.92;100147.00;5099738;27;46001;-45
2023/04/22 03:33:45;;;;;;;;;34.00;25.50;;;;;10.99;54.75;100143.84;5099800;27;45239;-48
2023/04/22 03:36:10;;;;;;;;;29.00;21.25;;;;;10.97;54.73;100139.72;5099884;27;45445;-44
2023/04/22 03:38:35;;;;;;;;;35.25;25.50;;;;;10.98;55.55;100142.19;5099910;27;45508;-46
2023/04/22 03:41:01;;;;;;;;;26.75;22.00;;;;;10.97;55.55;100151.19;5081265;27;47082;-45
2023/04/22 03:43:26;;;;;;;;;23.25;22.50;;;;;10.98;55.54;100152.84;5099326;27;45420;-47
2023/04/22 03:45:51;;;;;;;;;28.50;25.75;;;;;10.97;55.73;100156.50;5099758;27;45333;-48
2023/04/22 03:48:17;;;;;;;;;25.50;23.25;;;;;10.92;56.08;100153.50;5100033;27;45403;-46
2023/04/22 03:50:42;;;;;;;;;25.50;25.00;;;;;10.91;56.45;100154.50;5099399;27;47564;-48
2023/04/22 03:53:07;;;;;;;;;26.50;25.25;;;;;10.85;56.36;100149.81;5099334;27;45324;-45
2023/04/22 03:55:33;;;;;;;;;32.75;25.50;;;;;10.80;56.52;100149.47;5099583;27;45437;-46
2023/04/22 03:57:58;;;;;;;;;38.75;23.75;;;;;10.84;56.71;100136.69;5081252;27;45378;-46
2023/04/22 04:00:24;;;;;;;;;29.50;24.00;;;;;10.86;56.05;100121.38;5099331;27;46189;-48
2023/04/22 04:02:49;;;;;;;;;39.50;26.00;;;;;10.85;56.13;100103.75;5099189;27;45417;-46
2023/04/22 04:05:15;;;;;;;;;29.50;27.00;;;;;10.86;55.97;100126.69;5081140;27;45480;-45
2023/04/22 04:07:41;;;;;;;;;28.25;26.75;;;;;10.80;56.93;100132.69;5099622;27;45212;-44
2023/04/22 04:10:07;;;;;;;;;29.75;26.25;;;;;10.78;57.22;100155.94;5099014;27;46391;-47
2023/04/22 04:12:32;;;;;;;;;32.25;27.75;;;;;10.75;57.48;100151.81;5099272;27;45417;-45
2023/04/22 04:14:57;;;;;;;;;33.25;24.50;;;;;10.74;57.49;100139.47;5098929;27;45927;-47
2023/04/22 04:17:24;;;;;;;;;32.75;26.75;;;;;10.72;58.66;100126.34;5099175;27;45403;-44
2023/04/22 04:19:51;;;;;;;;;32.00;28.50;;;;;10.70;58.02;100109.72;5098912;27;46176;-45
2023/04/22 04:22:17;;;;;;;;;63.50;44.25;;;;;10.75;57.69;100093.28;5098787;27;45419;-46
2023/04/22 04:24:43;;;;;;;;;37.50;29.25;;;;;10.79;58.42;100060.03;5098995;27;45280;-47
2023/04/22 04:27:08;;;;;;;;;30.00;28.50;;;;;10.70;57.56;100048.56;5099133;27;45500;-46
2023/04/22 04:29:35;;;;;;;;;31.75;26.00;;;;;10.81;58.37;100076.66;5098731;27;46014;-46
2023/04/22 04:32:00;;;;;;;;;39.00;29.75;;;;;10.83;59.04;100071.16;5098835;27;45468;-45
2023/04/22 04:34:26;;;;;;;;;39.50;31.00;;;;;10.85;59.29;100079.81;5098617;27;45369;-48
2023/04/22 04:36:51;;;;;;;;;40.75;32.50;;;;;10.84;58.90;100086.97;5099054;27;45458;-45
2023/04/22 04:39:17;;;;;;;;;36.25;28.50;;;;;10.83;60.20;100121.69;5098382;27;50461;-45
2023/04/22 04:41:42;;;;;;;;;32.25;27.00;;;;;10.76;60.07;100120.72;5080108;27;45505;-45
2023/04/22 04:44:09;;;;;;;;;35.25;30.50;;;;;10.72;61.28;100104.25;5098511;27;45607;-46
2023/04/22 04:46:36;;;;;;;;;36.00;30.50;;;;;10.73;61.05;100064.16;5098798;27;45472;-45
2023/04/22 04:49:03;;;;;;;;;42.00;31.50;;;;;10.83;61.40;100079.13;5098434;27;45276;-46
2023/04/22 04:51:28;;;;;;;;;40.75;29.75;;;;;10.86;61.17;100108.06;5098317;27;45360;-46
2023/04/22 04:53:54;;;;;;;;;39.00;31.25;;;;;10.86;61.77;100108.06;5098519;27;45298;-45
2023/04/22 04:56:19;;;;;;;;;30.75;27.25;;;;;10.91;63.01;100121.72;5099080;27;45370;-46
2023/04/22 04:58:45;;;;;;;;;36.50;29.50;;;;;10.88;62.33;100100.78;5098135;27;46923;-45
2023/04/22 05:01:10;;;;;;;;;35.50;27.00;;;;;10.80;62.96;100039.56;5097267;27;45400;-46
2023/04/22 05:03:35;;;;;;;;;37.75;30.00;;;;;10.77;63.70;100045.22;5098554;27;45401;-44
2023/04/22 05:06:02;;;;;;;;;40.50;32.25;;;;;10.78;63.76;100065.50;5098515;27;45415;-45
2023/04/22 05:08:28;;;;;;;;;41.25;33.25;;;;;10.73;63.84;100060.66;5098408;27;47058;-46
2023/04/22 05:10:53;;;;;;;;;36.50;30.50;;;;;10.73;65.21;100042.03;5097296;27;45481;-46
2023/04/22 05:13:18;;;;;;;;;42.50;36.75;;;;;10.70;64.34;100043.22;5098373;27;45411;-47
2023/04/22 05:15:44;;;;;;;;;43.25;35.25;;;;;10.66;67.13;100039.22;5098206;27;45378;-47
2023/04/22 05:18:09;;;;;;;;;40.25;30.00;;;;;10.59;66.39;100085.25;5097821;27;46440;-46
2023/04/22 05:20:35;;;;;;;;;48.00;34.75;;;;;10.56;66.68;100088.25;5079657;27;45271;-46
2023/04/22 05:23:00;;;;;;;;;46.75;32.75;;;;;10.46;67.04;100085.72;5098138;27;45592;-46
2023/04/22 05:25:25;;;;;;;;;36.25;30.25;;;;;10.45;66.81;100102.69;5098468;27;45351;-48
2023/04/22 05:27:51;;;;;;;;;41.75;32.75;;;;;10.45;67.38;100118.63;5097939;27;46251;-47
2023/04/22 05:30:16;;;;;;;;;34.00;31.00;;;;;10.46;66.93;100109.66;5097749;27;45207;-45
2023/04/22 05:32:41;;;;;;;;;40.50;36.00;;;;;10.43;65.96;100083.38;5097882;27;45304;-45
2023/04/22 05:35:08;;;;;;;;;41.75;31.75;;;;;10.40;67.37;100086.34;5098056;27;45438;-47
2023/04/22 05:37:34;;;;;;;;;41.75;32.75;;;;;10.45;68.45;100108.84;5097763;27;46081;-47
2023/04/22 05:39:59;;;;;;;;;37.75;33.25;;;;;10.47;68.75;100124.63;5097741;27;45329;-45
2023/04/22 05:42:24;;;;;;;;;43.50;36.25;;;;;10.46;68.87;100136.25;5096846;27;45394;-46
2023/04/22 05:44:50;;;;;;;;;38.75;35.25;;;;;10.46;69.58;100137.09;5096486;27;45342;-45
2023/04/22 05:47:15;;;;;;;;;35.75;31.00;;;;;10.49;69.35;100147.41;5097386;27;45252;-45
2023/04/22 05:49:41;;;;;;;;;37.75;32.50;;;;;10.49;69.31;100152.72;5097371;27;45382;-46
2023/04/22 05:52:06;;;;;;;;;48.50;39.25;;;;;10.58;69.91;100155.41;5097280;27;45313;-47
2023/04/22 05:54:31;;;;;;;;;40.00;32.50;;;;;10.62;70.11;100104.38;5097563;27;45427;-47
2023/04/22 05:56:57;;;;;;;;;36.50;32.50;;;;;10.64;69.35;100118.34;5097524;27;46126;-47
2023/04/22 05:59:22;;;;;;;;;54.75;39.75;;;;;10.57;70.49;100113.84;5097345;27;45358;-45
2023/04/22 06:01:48;;;;;;;;;39.00;32.75;;;;;10.61;71.33;100109.84;5097541;27;45376;-46
2023/04/22 06:04:14;;;;;;;;;42.25;36.50;;;;;10.60;70.87;100124.97;5097756;27;45196;-46
2023/04/22 06:06:39;;;;;;;;;42.25;36.00;;;;;10.60;70.91;100132.97;5097104;27;46872;-45
2023/04/22 06:09:06;;;;;;;;;43.25;33.50;;;;;10.60;71.92;100132.97;5097304;27;45290;-44
2023/04/22 06:11:32;;;;;;;;;45.25;37.50;;;;;10.56;71.98;100125.47;5097466;27;45740;-45
2023/04/22 06:13:57;;;;;;;;;38.75;32.50;;;;;10.63;71.30;100132.66;5097378;27;45458;-44
2023/04/22 06:16:22;;;;;;;;;44.50;38.50;;;;;10.60;72.88;100130.31;5096817;27;46167;-45
2023/04/22 06:18:48;;;;;;;;;47.75;37.00;;;;;10.64;73.25;100134.31;5097043;27;45444;-46
2023/04/22 06:21:14;;;;;;;;;43.50;37.00;;;;;10.69;72.31;100121.34;5097561;27;45569;-47
2023/04/22 06:23:39;;;;;;;;;48.75;37.50;;;;;10.73;72.00;100128.00;5097472;27;45477;-44
2023/04/22 06:26:05;;;;;;;;;49.50;37.75;;;;;10.78;72.19;100138.16;5096909;27;47134;-44
2023/04/22 06:28:30;;;;;;;;;47.75;38.50;;;;;10.79;72.63;100146.97;5097091;27;46247;-45
2023/04/22 06:30:55;;;;;;;;;39.00;33.50;;;;;10.82;71.94;100138.66;5096968;27;45420;-44
2023/04/22 06:33:21;;;;;;;;;41.00;35.25;;;;;10.82;72.42;100147.47;5097667;27;45248;-47
2023/04/22 06:35:46;;;;;;;;;47.00;37.00;;;;;10.76;74.05;100142.00;5096880;27;46283;-46
2023/04/22 06:38:11;;;;;;;;;46.50;34.00;;;;;10.76;74.20;100149.97;5097059;27;45384;-46
2023/04/22 06:40:37;;;;;;;;;38.50;35.75;;;;;10.78;74.47;100146.13;5097015;27;45396;-45
2023/04/22 06:43:02;;;;;;;;;60.75;39.75;;;;;10.73;73.79;100145.81;5096795;27;45474;-45
2023/04/22 06:45:27;;;;;;;;;39.75;29.50;;;;;10.69;73.71;100150.59;5096824;27;46387;-45
2023/04/22 06:47:53;;;;;;;;;36.50;30.25;;;;;10.65;74.00;100151.91;5096860;27;45330;-46
2023/04/22 06:50:18;;;;;;;;;45.00;32.25;;;;;10.63;73.72;100151.25;5097142;27;45287;-46
2023/04/22 06:52:44;;;;;;;;;41.75;33.75;;;;;10.62;75.08;100132.78;5096816;27;45502;-46
2023/04/22 06:55:09;;;;;;;;;36.25;33.25;;;;;10.62;74.41;100128.34;5096332;27;46295;-47
2023/04/22 06:57:34;;;;;;;;;37.00;32.00;;;;;10.66;74.10;100134.13;5096864;27;45427;-48
2023/04/22 07:00:00;;;;;;;;;38.25;31.75;;;;;10.61;75.65;100142.59;5096475;27;45240;-46
2023/04/22 07:02:25;;;;;;;;;52.00;38.50;;;;;10.55;77.15;100135.28;5096624;27;45489;-47
2023/04/22 07:04:51;;;;;;;;;50.50;36.25;;;;;10.54;76.19;100133.63;5099594;27;46078;-46
2023/04/22 07:07:17;;;;;;;;;42.50;34.50;;;;;10.51;76.13;100123.31;5099864;27;46009;-46
2023/04/22 07:09:42;;;;;;;;;38.50;36.00;;;;;10.55;77.25;100129.13;5100419;27;45328;-47
2023/04/22 07:12:07;;;;;;;;;45.25;34.25;;;;;10.55;78.19;100119.31;5100206;27;45291;-48
2023/04/22 07:14:33;;;;;;;;;47.50;36.50;;;;;10.58;77.32;100124.31;5099701;27;47181;-46
2023/04/22 07:16:59;;;;;;;;;39.25;32.00;;;;;10.59;77.38;100120.66;5099715;27;45408;-46
2023/04/22 07:19:24;;;;;;;;;43.75;34.75;;;;;10.61;77.45;100126.63;5099854;27;45497;-48
2023/04/22 07:21:50;;;;;;;;;46.75;36.25;;;;;10.64;77.66;100123.66;5100347;27;45361;-49
2023/04/22 07:24:15;;;;;;;;;41.00;32.75;;;;;10.66;76.96;100127.00;5099768;27;46094;-46
2023/04/22 07:26:42;;;;;;;;;42.75;35.75;;;;;10.62;77.58;100115.03;5099934;27;45431;-46
2023/04/22 07:29:08;;;;;;;;;42.00;35.50;;;;;10.68;77.51;100113.53;5099867;27;45325;-47
2023/04/22 07:31:36;;;;;;;;;30.00;29.25;;;;;10.80;77.38;100128.19;5099641;27;45532;-47
2023/04/22 07:34:02;;;;;;;;;43.50;34.00;;;;;10.86;77.31;100124.88;5099657;27;46428;-48
2023/04/22 07:36:27;;;;;;;;;41.75;36.75;;;;;10.89;76.89;100131.72;5099435;27;45499;-46
2023/04/22 07:38:53;;;;;;;;;34.50;30.00;;;;;10.99;77.08;100127.06;5098632;27;45312;-47
2023/04/22 07:41:18;;;;;;;;;37.50;29.00;;;;;11.09;77.07;100126.91;5115789;27;45480;-48
2023/04/22 07:43:43;;;;;;;;;39.75;34.25;;;;;11.15;76.72;100128.91;5099333;27;46325;-45
2023/04/22 07:46:09;;;;;;;;;37.50;28.75;;;;;11.16;76.28;100125.25;5099454;27;45478;-44
2023/04/22 07:48:35;;;;;;;;;38.25;23.50;;;;;11.16;76.95;100123.41;5099498;27;45448;-46
2023/04/22 07:51:00;;;;;;;;;43.25;34.25;;;;;11.05;76.82;100107.78;5100018;27;45350;-46
2023/04/22 07:53:26;;;;;;;;;56.50;39.00;;;;;11.14;76.92;100117.44;5099187;27;46953;-46
2023/04/22 07:55:51;;;;;;;;;42.00;33.25;;;;;11.11;76.98;100120.41;5099291;27;45428;-46
2023/04/22 07:58:16;;;;;;;;;38.00;31.50;;;;;11.11;77.39;100120.41;5099661;27;45356;-47
2023/04/22 08:00:42;;;;;;;;;42.50;34.00;;;;;11.15;77.65;100116.44;5099426;27;45429;-49
2023/04/22 08:03:07;;;;;;;;;52.25;39.00;;;;;11.22;78.62;100121.94;5099215;27;45579;-48
2023/04/22 08:05:32;;;;;;;;;39.00;33.75;;;;;11.22;78.69;100121.94;5099262;27;45243;-47
2023/04/22 08:07:58;;;;;;;;;41.50;33.00;;;;;11.22;78.19;100125.41;5099011;27;45590;-46
2023/04/22 08:10:23;;;;;;;;;38.00;29.00;;;;;11.28;77.94;100125.75;5099635;27;45421;-46
2023/04/22 08:12:48;;;;;;;;;46.75;38.00;;;;;11.30;78.69;100129.09;5099133;27;46977;-48
2023/04/22 08:15:14;;;;;;;;;38.25;30.25;;;;;11.29;78.28;100119.41;5099236;27;45400;-45
2023/04/22 08:17:39;;;;;;;;;42.75;37.50;;;;;11.33;78.82;100126.91;5099099;27;45342;-48
2023/04/22 08:20:05;;;;;;;;;37.25;31.25;;;;;11.34;78.74;100125.09;5115085;27;45425;-47
2023/04/22 08:22:32;;;;;;;;;38.50;32.25;;;;;11.33;80.72;100124.25;5098136;27;45298;-45
2023/04/22 08:24:58;;;;;;;;;34.25;29.25;;;;;11.30;80.65;100129.94;5098917;27;45374;-45
2023/04/22 08:27:23;;;;;;;;;34.75;31.25;;;;;11.26;80.76;100136.56;5099044;27;45238;-44
2023/04/22 08:29:48;;;;;;;;;36.25;34.00;;;;;11.29;81.47;100133.56;5099238;27;45232;-46
2023/04/22 08:32:15;;;;;;;;;31.75;29.00;;;;;11.34;80.84;100143.75;5098960;27;46056;-45
2023/04/22 08:34:40;;;;;;;;;44.00;33.25;;;;;11.35;81.04;100148.06;5098998;27;45476;-46
2023/04/22 08:37:05;;;;;;;;;42.50;31.75;;;;;11.37;81.17;100138.88;5099499;27;45279;-46
2023/04/22 08:39:31;;;;;;;;;49.00;33.75;;;;;11.44;81.45;100150.56;5099518;27;45361;-45
2023/04/22 08:41:57;;;;;;;;;41.50;34.75;;;;;11.51;81.24;100137.41;5098805;27;45916;-45
2023/04/22 08:44:22;;;;;;;;;35.50;30.25;;;;;11.53;81.06;100134.56;5098458;27;45400;-45
2023/04/22 08:46:49;;;;;;;;;37.00;31.00;;;;;11.58;80.33;100149.03;5099541;27;45442;-46
2023/04/22 08:49:15;;;;;;;;;43.75;36.25;;;;;11.40;81.72;100114.59;5099598;27;45398;-46
2023/04/22 08:51:42;;;;;;;;;32.50;31.00;;;;;11.58;81.79;100137.56;5099296;27;45883;-47
2023/04/22 08:54:07;;;;;;;;;42.25;35.50;;;;;11.58;83.01;100133.06;5099190;27;45315;-49
2023/04/22 08:56:35;;;;;;;;;32.75;25.50;;;;;11.63;83.02;100138.72;5098569;27;45286;-48
2023/04/22 08:59:02;;;;;;;;;39.25;32.50;;;;;11.68;83.89;100140.88;5099203;27;45379;-45
2023/04/22 09:01:30;;;;;;;;;32.00;29.25;;;;;11.77;83.05;100149.69;5098570;27;45806;-47
2023/04/22 09:03:58;;;;;;;;;38.00;33.00;;;;;11.78;83.90;100148.69;5098681;27;45160;-47
2023/04/22 09:06:24;;;;;;;;;40.00;31.00;;;;;11.86;83.76;100154.03;5098698;27;45315;-48
2023/04/22 09:08:49;;;;;;;;;40.75;35.00;;;;;11.92;83.90;100145.34;5099052;27;45267;-46
2023/04/22 09:11:16;;;;;;;;;41.50;29.25;;;;;12.03;84.73;100141.50;5098926;27;46081;-46
2023/04/22 09:13:41;;;;;;;;;34.50;31.50;;;;;12.13;84.57;100148.28;5098876;27;45314;-48
2023/04/22 09:16:07;;;;;;;;;35.50;33.00;;;;;12.10;84.49;100138.00;5098596;27;45317;-46
2023/04/22 09:18:44;;;;;;;;;42.00;29.00;;;;;12.23;83.89;100151.63;5098910;27;45443;-47
2023/04/22 09:21:10;;;;;;;;;24.33;21.00;;;;;12.27;83.89;100153.94;5098176;27;46212;-49
2023/04/22 09:23:51;;;;;;;;;36.67;25.67;;;;;12.32;84.05;100151.59;5098458;27;45180;-46
2023/04/22 09:26:24;;;;;;;;;27.33;25.33;;;;;12.37;84.55;100151.91;5097649;27;45405;-48
2023/04/22 09:28:57;;;;;;;;;29.00;28.33;;;;;12.46;84.70;100148.19;5098586;27;45332;-47
2023/04/22 09:31:23;;;;;;;;;29.67;22.67;;;;;12.54;84.28;100150.81;5098165;27;45351;-49
2023/04/22 09:33:51;;;;;;;;;23.00;21.00;;;;;12.63;84.64;100160.44;5098132;27;45256;-48
2023/04/22 09:36:20;;;;;;;;;26.00;21.67;;;;;12.70;84.91;100157.91;5098381;27;45329;-48
2023/04/22 09:38:57;;;;;;;;;31.67;22.00;;;;;12.76;83.83;100169.72;5098441;27;45295;-48
2023/04/22 09:41:30;;;;;;;;;26.33;23.00;;;;;12.81;84.03;100183.38;5097793;27;45856;-46
2023/04/22 09:43:57;;;;;;;;;26.00;19.33;;;;;12.74;84.36;100161.91;5097708;27;45497;-47
2023/04/22 09:46:24;;;;;;;;;22.67;22.67;;;;;12.89;82.85;100188.66;5098188;27;45342;-46
2023/04/22 09:48:52;;;;;;;;;25.00;20.33;;;;;12.93;84.04;100181.97;5098267;27;45542;-50
2023/04/22 09:51:18;;;;;;;;;25.33;15.00;;;;;12.95;80.58;100183.47;5098124;27;45379;-47
2023/04/22 09:53:45;;;;;;;;;22.00;16.00;;;;;12.92;81.53;100186.47;5097954;27;45288;-46
2023/04/22 09:56:10;;;;;;;;;22.67;17.33;;;;;12.86;82.86;100179.19;5098219;27;45299;-46
2023/04/22 09:58:39;;;;;;;;;17.67;14.33;;;;;12.97;81.66;100193.97;5098065;27;45173;-45
2023/04/22 10:01:05;;;;;;;;;13.33;13.33;;;;;12.97;81.93;100202.81;5097894;27;46992;-46
2023/04/22 10:03:30;;;;;;;;;12.33;11.00;;;;;13.21;83.07;100217.03;5097955;27;45497;-46
2023/04/22 10:05:59;;;;;;;;;16.67;14.33;;;;;13.38;81.63;100218.59;5098200;27;45336;-48
2023/04/22 10:08:25;;;;;;;;;13.67;13.67;;;;;13.50;80.78;100212.88;5098156;27;45389;-47
2023/04/22 10:10:52;;;;;;;;;13.67;13.67;;;;;13.58;81.12;100212.81;5062358;27;46195;-46
2023/04/22 10:13:17;;;;;;;;;18.67;14.00;;;;;13.70;79.94;100214.88;5097799;27;45271;-46
2023/04/22 10:15:42;;;;;;;;;18.00;13.67;;;;;13.89;79.79;100212.69;5097630;27;45570;-47
2023/04/22 10:18:12;;;;;;;;;13.67;13.33;;;;;13.93;77.97;100216.66;5097847;27;45502;-49
2023/04/22 10:20:40;;;;;;;;;16.33;10.00;;;;;13.97;77.42;100221.47;5097589;27;47259;-50
2023/04/22 10:23:11;;;;;;;;;16.33;13.00;;;;;13.92;77.57;100213.16;5097566;27;45408;-49
2023/04/22 10:25:38;;;;;;;;;14.00;14.00;;;;;13.88;78.24;100213.72;5097782;27;45320;-45
2023/04/22 10:28:09;;;;;;;;;19.00;14.00;;;;;13.84;77.92;100218.59;5097605;27;45294;-47
2023/04/22 10:30:37;;;;;;;;;17.67;17.00;;;;;13.81;77.95;100223.47;5097598;27;46227;-48
2023/04/22 10:33:20;;;;;;;;;12.33;12.33;;;;;13.79;77.87;100226.31;5096107;27;45386;-45
2023/04/22 10:36:08;;;;;;;;;20.33;15.00;;;;;13.80;76.91;100229.81;5079046;27;45453;-48
2023/04/22 10:38:39;;;;;;;;;21.00;18.33;;;;;13.81;77.47;100239.50;5100480;27;45259;-45
2023/04/22 10:41:04;;;;;;;;;13.00;13.00;;;;;13.85;77.15;100232.78;5100890;27;47074;-49
2023/04/22 10:43:46;;;;;;;;;10.67;10.67;;;;;13.91;76.43;100234.75;5100993;27;45490;-48
2023/04/22 10:46:33;;;;;;;;;14.33;10.33;;;;;13.99;74.92;100240.03;5101244;27;45415;-45
2023/04/22 10:49:05;;;;;;;;;19.33;17.00;;;;;14.05;75.19;100249.16;5082641;27;45560;-48
2023/04/22 10:51:47;;;;;;;;;19.67;15.00;;;;;14.05;74.69;100251.84;5100678;27;47192;-46
2023/04/22 10:54:24;;;;;;;;;16.33;14.00;;;;;14.08;75.00;100265.69;5100684;27;45424;-49
2023/04/22 10:57:21;;;;;;;;;16.33;14.00;;;;;14.10;74.50;100268.16;5100569;27;45446;-45
2023/04/22 10:59:57;;;;;;;;;19.33;15.33;;;;;14.10;73.97;100271.66;5077904;28;45572;-44
2023/04/22 11:02:23;;;;;;;;;19.33;15.00;;;;;14.09;74.30;100261.97;5077700;28;45642;-47
2023/04/22 11:04:52;;;;;;;;;18.67;15.00;;;;;14.14;74.27;100270.28;5077649;28;45410;-44